PGT5XE LTBJ-LTDB
Flight info
| Callsign | PGT5XE |
|---|---|
| Flight time | 1h 4m |
| Altitude | 37000 |
| Route | KULAR UT54 TUMER UT38 KETEK UR55 MUT/N0397F280 W74 MANAZ |
| Aircraft | A20N/M-SDE2E3FGHIJ1RWXY/LB1 |
Departure
| Time | 2026-05-08 08:53 |
|---|---|
| Airport | Adnan Menderes International Airport (LTBJ) |
Arrival
| Time | 2026-05-08 09:58 |
|---|---|
| Airport | Çukurova International Airport (LTDB) |
| Time | Latitude | Longitude | Altitude | Speed | Heading |
|---|---|---|---|---|---|
| 2026-05-08 08:29 | 38.29708 | 27.14934 | 415 ft | 0 kts | 256° |
| 2026-05-08 08:42 | 38.29709 | 27.14939 | 416 ft | 2 kts | 256° |
| 2026-05-08 08:42 | 38.29712 | 27.14957 | 416 ft | 2 kts | 256° |
| 2026-05-08 08:42 | 38.29715 | 27.14969 | 416 ft | 1 kts | 256° |
| 2026-05-08 08:42 | 38.29720 | 27.14987 | 416 ft | 2 kts | 231° |
| 2026-05-08 08:43 | 38.29731 | 27.15000 | 416 ft | 2 kts | 210° |
| 2026-05-08 08:43 | 38.29745 | 27.15006 | 417 ft | 2 kts | 187° |
| 2026-05-08 08:43 | 38.29757 | 27.15007 | 417 ft | 0 kts | 169° |
| 2026-05-08 08:43 | 38.29764 | 27.15004 | 417 ft | 0 kts | 166° |
| 2026-05-08 08:46 | 38.29760 | 27.15005 | 417 ft | 1 kts | 166° |
| 2026-05-08 08:46 | 38.29739 | 27.15012 | 417 ft | 4 kts | 166° |
| 2026-05-08 08:46 | 38.29694 | 27.15026 | 416 ft | 8 kts | 167° |
| 2026-05-08 08:47 | 38.29630 | 27.15044 | 415 ft | 10 kts | 166° |
| 2026-05-08 08:47 | 38.29552 | 27.15068 | 414 ft | 12 kts | 167° |
| 2026-05-08 08:47 | 38.29464 | 27.15095 | 414 ft | 13 kts | 166° |
| 2026-05-08 08:47 | 38.29366 | 27.15124 | 413 ft | 14 kts | 166° |
| 2026-05-08 08:48 | 38.29265 | 27.15155 | 413 ft | 15 kts | 166° |
| 2026-05-08 08:48 | 38.29160 | 27.15186 | 413 ft | 15 kts | 166° |
| 2026-05-08 08:48 | 38.29053 | 27.15218 | 412 ft | 16 kts | 166° |
| 2026-05-08 08:48 | 38.29010 | 27.15262 | 412 ft | 5 kts | 101° |
| 2026-05-08 08:49 | 38.28982 | 27.15305 | 412 ft | 8 kts | 158° |
| 2026-05-08 08:49 | 38.28918 | 27.15326 | 412 ft | 10 kts | 166° |
| 2026-05-08 08:49 | 38.28833 | 27.15351 | 411 ft | 15 kts | 166° |
| 2026-05-08 08:49 | 38.28716 | 27.15387 | 411 ft | 18 kts | 166° |
| 2026-05-08 08:50 | 38.28592 | 27.15424 | 409 ft | 18 kts | 167° |
| 2026-05-08 08:50 | 38.28463 | 27.15463 | 407 ft | 19 kts | 166° |
| 2026-05-08 08:50 | 38.28330 | 27.15502 | 405 ft | 20 kts | 166° |
| 2026-05-08 08:50 | 38.28188 | 27.15545 | 401 ft | 21 kts | 167° |
| 2026-05-08 08:51 | 38.28100 | 27.15606 | 399 ft | 13 kts | 99° |
| 2026-05-08 08:51 | 38.28114 | 27.15710 | 400 ft | 9 kts | 77° |
| 2026-05-08 08:51 | 38.28133 | 27.15783 | 400 ft | 6 kts | 48° |
| 2026-05-08 08:51 | 38.28159 | 27.15800 | 401 ft | 2 kts | 15° |
| 2026-05-08 08:52 | 38.28178 | 27.15798 | 401 ft | 2 kts | 346° |
| 2026-05-08 08:52 | 38.28186 | 27.15796 | 401 ft | 0 kts | 346° |
| 2026-05-08 08:52 | 38.28190 | 27.15794 | 401 ft | 4 kts | 346° |
| 2026-05-08 08:52 | 38.28375 | 27.15739 | 406 ft | 62 kts | 347° |
| 2026-05-08 08:53 | 38.29023 | 27.15544 | 414 ft | 127 kts | 347° |
| 2026-05-08 08:53 | 38.30068 | 27.15233 | 546 ft | 167 kts | 348° |
| 2026-05-08 08:53 | 38.31215 | 27.14928 | 1111 ft | 172 kts | 348° |
| 2026-05-08 08:53 | 38.32388 | 27.14641 | 1785 ft | 174 kts | 347° |
| 2026-05-08 08:54 | 38.33574 | 27.14313 | 2377 ft | 180 kts | 346° |
| 2026-05-08 08:54 | 38.34832 | 27.13942 | 2800 ft | 194 kts | 347° |
| 2026-05-08 08:54 | 38.36191 | 27.13559 | 3254 ft | 208 kts | 347° |
| 2026-05-08 08:54 | 38.37672 | 27.13173 | 3605 ft | 230 kts | 353° |
| 2026-05-08 08:55 | 38.39314 | 27.13500 | 4026 ft | 249 kts | 28° |
| 2026-05-08 08:55 | 38.40619 | 27.14979 | 4593 ft | 261 kts | 56° |
| 2026-05-08 08:55 | 38.41676 | 27.16955 | 5203 ft | 275 kts | 57° |
| 2026-05-08 08:55 | 38.42752 | 27.18951 | 5974 ft | 281 kts | 56° |
| 2026-05-08 08:56 | 38.43847 | 27.21022 | 6814 ft | 285 kts | 61° |
| 2026-05-08 08:56 | 38.44670 | 27.23323 | 7657 ft | 288 kts | 72° |
| 2026-05-08 08:56 | 38.45187 | 27.25755 | 8458 ft | 292 kts | 77° |
| 2026-05-08 08:56 | 38.45642 | 27.28301 | 9249 ft | 297 kts | 78° |
| 2026-05-08 08:57 | 38.46091 | 27.30858 | 10063 ft | 301 kts | 78° |
| 2026-05-08 08:57 | 38.46558 | 27.33471 | 10723 ft | 310 kts | 77° |
| 2026-05-08 08:57 | 38.46994 | 27.36244 | 11108 ft | 326 kts | 81° |
| 2026-05-08 08:57 | 38.47321 | 27.39156 | 11467 ft | 339 kts | 82° |
| 2026-05-08 08:58 | 38.47635 | 27.42160 | 12038 ft | 343 kts | 82° |
| 2026-05-08 08:58 | 38.47946 | 27.45172 | 12607 ft | 346 kts | 82° |
| 2026-05-08 08:58 | 38.48265 | 27.48228 | 13197 ft | 349 kts | 82° |
| 2026-05-08 08:58 | 38.48592 | 27.51277 | 13748 ft | 352 kts | 80° |
| 2026-05-08 08:59 | 38.49008 | 27.54373 | 14298 ft | 357 kts | 79° |
| 2026-05-08 08:59 | 38.49453 | 27.57524 | 14951 ft | 362 kts | 79° |
| 2026-05-08 08:59 | 38.49897 | 27.60664 | 15619 ft | 366 kts | 79° |
| 2026-05-08 08:59 | 38.50349 | 27.63870 | 16244 ft | 371 kts | 79° |
| 2026-05-08 09:00 | 38.50803 | 27.67114 | 16859 ft | 375 kts | 80° |
| 2026-05-08 09:00 | 38.51259 | 27.70399 | 17446 ft | 380 kts | 80° |
| 2026-05-08 09:00 | 38.51722 | 27.73743 | 18050 ft | 384 kts | 80° |
| 2026-05-08 09:00 | 38.52186 | 27.77118 | 18648 ft | 389 kts | 79° |
| 2026-05-08 09:01 | 38.52654 | 27.80518 | 19201 ft | 394 kts | 79° |
| 2026-05-08 09:01 | 38.53128 | 27.83969 | 19775 ft | 399 kts | 78° |
| 2026-05-08 09:01 | 38.53606 | 27.87455 | 20298 ft | 403 kts | 78° |
| 2026-05-08 09:01 | 38.54089 | 27.90979 | 20844 ft | 408 kts | 78° |
| 2026-05-08 09:02 | 38.54577 | 27.94546 | 21356 ft | 413 kts | 77° |
| 2026-05-08 09:02 | 38.55073 | 27.98166 | 21852 ft | 418 kts | 77° |
| 2026-05-08 09:02 | 38.55576 | 28.01840 | 22361 ft | 422 kts | 77° |
| 2026-05-08 09:02 | 38.56084 | 28.05568 | 22842 ft | 427 kts | 77° |
| 2026-05-08 09:03 | 38.56596 | 28.09314 | 23335 ft | 432 kts | 77° |
| 2026-05-08 09:03 | 38.57106 | 28.13074 | 23825 ft | 436 kts | 77° |
| 2026-05-08 09:03 | 38.57625 | 28.16910 | 24304 ft | 441 kts | 76° |
| 2026-05-08 09:03 | 38.58136 | 28.20794 | 24803 ft | 445 kts | 78° |
| 2026-05-08 09:04 | 38.58511 | 28.24724 | 25258 ft | 450 kts | 81° |
| 2026-05-08 09:04 | 38.58794 | 28.28716 | 25706 ft | 454 kts | 81° |
| 2026-05-08 09:04 | 38.59051 | 28.32710 | 26138 ft | 457 kts | 81° |
| 2026-05-08 09:04 | 38.59316 | 28.36761 | 26566 ft | 460 kts | 81° |
| 2026-05-08 09:05 | 38.59586 | 28.40816 | 26986 ft | 463 kts | 81° |
| 2026-05-08 09:05 | 38.59867 | 28.44946 | 27379 ft | 467 kts | 80° |
| 2026-05-08 09:05 | 38.60149 | 28.49054 | 27917 ft | 466 kts | 80° |
| 2026-05-08 09:05 | 38.60434 | 28.53178 | 28349 ft | 468 kts | 80° |
| 2026-05-08 09:06 | 38.60718 | 28.57302 | 28713 ft | 471 kts | 80° |
| 2026-05-08 09:06 | 38.61005 | 28.61490 | 29099 ft | 474 kts | 80° |
| 2026-05-08 09:06 | 38.61289 | 28.65665 | 29462 ft | 477 kts | 81° |
| 2026-05-08 09:06 | 38.61575 | 28.69911 | 29826 ft | 480 kts | 80° |
| 2026-05-08 09:07 | 38.61859 | 28.74141 | 30172 ft | 482 kts | 80° |
| 2026-05-08 09:07 | 38.62145 | 28.78419 | 30506 ft | 485 kts | 81° |
| 2026-05-08 09:07 | 38.62431 | 28.82741 | 30916 ft | 486 kts | 80° |
| 2026-05-08 09:07 | 38.62709 | 28.86971 | 31384 ft | 484 kts | 80° |
| 2026-05-08 09:08 | 38.62996 | 28.91295 | 31838 ft | 483 kts | 80° |
| 2026-05-08 09:08 | 38.63274 | 28.95537 | 32284 ft | 482 kts | 79° |
| 2026-05-08 09:08 | 38.63549 | 28.99763 | 32670 ft | 482 kts | 79° |
| 2026-05-08 09:08 | 38.63827 | 29.04054 | 33024 ft | 483 kts | 79° |
| 2026-05-08 09:09 | 38.64107 | 29.08332 | 33354 ft | 484 kts | 79° |
| 2026-05-08 09:09 | 38.64381 | 29.12607 | 33735 ft | 483 kts | 79° |
| 2026-05-08 09:09 | 38.64652 | 29.16825 | 34105 ft | 482 kts | 79° |
| 2026-05-08 09:09 | 38.64925 | 29.21118 | 34434 ft | 483 kts | 79° |
| 2026-05-08 09:10 | 38.65194 | 29.25355 | 34817 ft | 482 kts | 79° |
| 2026-05-08 09:10 | 38.65466 | 29.29641 | 35200 ft | 481 kts | 79° |
| 2026-05-08 09:10 | 38.65728 | 29.33859 | 35546 ft | 480 kts | 79° |
| 2026-05-08 09:10 | 38.65932 | 29.38096 | 35827 ft | 484 kts | 84° |
| 2026-05-08 09:11 | 38.65744 | 29.42401 | 36000 ft | 492 kts | 93° |
| 2026-05-08 09:11 | 38.65051 | 29.46713 | 36209 ft | 498 kts | 103° |
| 2026-05-08 09:11 | 38.63864 | 29.50898 | 36470 ft | 501 kts | 112° |
| 2026-05-08 09:11 | 38.62221 | 29.54803 | 36701 ft | 502 kts | 122° |
| 2026-05-08 09:12 | 38.60223 | 29.58444 | 36901 ft | 503 kts | 126° |
| 2026-05-08 09:12 | 38.58138 | 29.62006 | 37051 ft | 505 kts | 127° |
| 2026-05-08 09:12 | 38.56001 | 29.65627 | 37205 ft | 507 kts | 127° |
| 2026-05-08 09:12 | 38.53892 | 29.69246 | 37222 ft | 508 kts | 127° |
| 2026-05-08 09:13 | 38.49726 | 29.76513 | 37232 ft | 509 kts | 127° |
| 2026-05-08 09:13 | 38.45567 | 29.83807 | 37231 ft | 509 kts | 126° |
| 2026-05-08 09:14 | 38.41394 | 29.91102 | 37227 ft | 509 kts | 126° |
| 2026-05-08 09:14 | 38.37260 | 29.98319 | 37222 ft | 508 kts | 126° |
| 2026-05-08 09:15 | 38.33104 | 30.05560 | 37223 ft | 509 kts | 126° |
| 2026-05-08 09:15 | 38.28914 | 30.12826 | 37229 ft | 509 kts | 126° |
| 2026-05-08 09:16 | 38.24734 | 30.20071 | 37231 ft | 509 kts | 125° |
| 2026-05-08 09:16 | 38.20537 | 30.27320 | 37240 ft | 510 kts | 125° |
| 2026-05-08 09:17 | 38.16348 | 30.34539 | 37255 ft | 509 kts | 126° |
| 2026-05-08 09:17 | 38.12131 | 30.41799 | 37265 ft | 509 kts | 125° |
| 2026-05-08 09:18 | 38.07934 | 30.49004 | 37273 ft | 509 kts | 125° |
| 2026-05-08 09:18 | 38.03738 | 30.56200 | 37275 ft | 510 kts | 125° |
| 2026-05-08 09:19 | 37.99526 | 30.63413 | 37283 ft | 508 kts | 126° |
| 2026-05-08 09:19 | 37.95317 | 30.70605 | 37277 ft | 508 kts | 126° |
| 2026-05-08 09:20 | 37.91136 | 30.77755 | 37284 ft | 507 kts | 125° |
| 2026-05-08 09:20 | 37.86909 | 30.84942 | 37274 ft | 507 kts | 126° |
| 2026-05-08 09:21 | 37.82690 | 30.92074 | 37280 ft | 508 kts | 126° |
| 2026-05-08 09:23 | 37.67945 | 31.17012 | 37277 ft | 507 kts | 124° |
| 2026-05-08 09:23 | 37.63724 | 31.24135 | 37273 ft | 506 kts | 125° |
| 2026-05-08 09:24 | 37.59529 | 31.31183 | 37279 ft | 505 kts | 125° |
| 2026-05-08 09:24 | 37.55316 | 31.38245 | 37278 ft | 506 kts | 125° |
| 2026-05-08 09:25 | 37.51089 | 31.45316 | 37282 ft | 505 kts | 124° |
| 2026-05-08 09:25 | 37.46869 | 31.52376 | 37280 ft | 505 kts | 124° |
| 2026-05-08 09:26 | 37.42661 | 31.59392 | 37288 ft | 503 kts | 124° |
| 2026-05-08 09:26 | 37.38448 | 31.66413 | 37283 ft | 504 kts | 125° |
| 2026-05-08 09:27 | 37.34214 | 31.73449 | 37299 ft | 505 kts | 126° |
| 2026-05-08 09:27 | 37.29984 | 31.80431 | 37307 ft | 503 kts | 125° |
| 2026-05-08 09:28 | 37.25755 | 31.87394 | 37321 ft | 503 kts | 125° |
| 2026-05-08 09:28 | 37.21505 | 31.94399 | 37321 ft | 504 kts | 125° |
| 2026-05-08 09:29 | 37.17248 | 32.01379 | 37329 ft | 503 kts | 125° |
| 2026-05-08 09:29 | 37.13041 | 32.08285 | 37321 ft | 502 kts | 125° |
| 2026-05-08 09:30 | 37.08798 | 32.15237 | 36950 ft | 505 kts | 125° |
| 2026-05-08 09:30 | 37.06656 | 32.18733 | 36334 ft | 506 kts | 125° |
| 2026-05-08 09:30 | 37.04529 | 32.22199 | 35707 ft | 505 kts | 125° |
| 2026-05-08 09:30 | 37.02389 | 32.25688 | 35064 ft | 505 kts | 125° |
| 2026-05-08 09:31 | 37.00250 | 32.29173 | 34394 ft | 505 kts | 125° |
| 2026-05-08 09:31 | 36.98100 | 32.32668 | 33721 ft | 505 kts | 125° |
| 2026-05-08 09:31 | 36.95997 | 32.36084 | 33171 ft | 503 kts | 125° |
| 2026-05-08 09:31 | 36.93869 | 32.39561 | 32548 ft | 502 kts | 123° |
| 2026-05-08 09:32 | 36.91972 | 32.43185 | 31949 ft | 497 kts | 116° |
| 2026-05-08 09:32 | 36.90435 | 32.47075 | 31371 ft | 490 kts | 108° |
| 2026-05-08 09:32 | 36.89313 | 32.51097 | 30810 ft | 482 kts | 100° |
| 2026-05-08 09:32 | 36.88607 | 32.55146 | 30442 ft | 469 kts | 92° |
| 2026-05-08 09:33 | 36.88291 | 32.59140 | 30270 ft | 460 kts | 86° |
| 2026-05-08 09:33 | 36.88110 | 32.67130 | 29936 ft | 462 kts | 85° |
| 2026-05-08 09:33 | 36.88031 | 32.71167 | 29129 ft | 467 kts | 86° |
| 2026-05-08 09:34 | 36.87939 | 32.75202 | 28512 ft | 465 kts | 86° |
| 2026-05-08 09:34 | 36.87834 | 32.79168 | 28029 ft | 460 kts | 87° |
| 2026-05-08 09:34 | 36.87721 | 32.83140 | 27581 ft | 454 kts | 87° |
| 2026-05-08 09:34 | 36.87606 | 32.87061 | 27133 ft | 449 kts | 87° |
| 2026-05-08 09:35 | 36.87490 | 32.90911 | 26733 ft | 443 kts | 88° |
| 2026-05-08 09:35 | 36.87373 | 32.94703 | 26334 ft | 437 kts | 88° |
| 2026-05-08 09:35 | 36.87257 | 32.98480 | 25946 ft | 431 kts | 88° |
| 2026-05-08 09:35 | 36.87144 | 33.02181 | 25533 ft | 427 kts | 88° |
| 2026-05-08 09:36 | 36.87028 | 33.05851 | 25116 ft | 423 kts | 88° |
| 2026-05-08 09:36 | 36.86916 | 33.09453 | 24729 ft | 418 kts | 88° |
| 2026-05-08 09:36 | 36.86804 | 33.13071 | 24320 ft | 414 kts | 89° |
| 2026-05-08 09:36 | 36.86692 | 33.16628 | 23933 ft | 410 kts | 89° |
| 2026-05-08 09:37 | 36.86577 | 33.20155 | 23525 ft | 406 kts | 89° |
| 2026-05-08 09:37 | 36.86462 | 33.23668 | 23100 ft | 403 kts | 89° |
| 2026-05-08 09:37 | 36.86348 | 33.27101 | 22705 ft | 399 kts | 89° |
| 2026-05-08 09:37 | 36.86346 | 33.30524 | 22326 ft | 394 kts | 84° |
| 2026-05-08 09:38 | 36.86486 | 33.33915 | 21938 ft | 390 kts | 83° |
| 2026-05-08 09:38 | 36.86656 | 33.37262 | 21543 ft | 387 kts | 83° |
| 2026-05-08 09:38 | 36.86830 | 33.40628 | 21163 ft | 383 kts | 83° |
| 2026-05-08 09:38 | 36.86998 | 33.43934 | 20757 ft | 381 kts | 83° |
| 2026-05-08 09:39 | 36.87165 | 33.47209 | 20360 ft | 379 kts | 83° |
| 2026-05-08 09:39 | 36.87328 | 33.50466 | 19967 ft | 376 kts | 83° |
| 2026-05-08 09:39 | 36.87486 | 33.53678 | 19597 ft | 373 kts | 83° |
| 2026-05-08 09:39 | 36.87644 | 33.56909 | 19194 ft | 371 kts | 83° |
| 2026-05-08 09:40 | 36.87799 | 33.60091 | 18830 ft | 367 kts | 83° |
| 2026-05-08 09:40 | 36.87951 | 33.63249 | 18453 ft | 365 kts | 83° |
| 2026-05-08 09:40 | 36.88103 | 33.66410 | 18058 ft | 362 kts | 83° |
| 2026-05-08 09:40 | 36.88251 | 33.69535 | 17702 ft | 359 kts | 83° |
| 2026-05-08 09:41 | 36.88397 | 33.72635 | 17337 ft | 356 kts | 83° |
| 2026-05-08 09:41 | 36.88542 | 33.75713 | 16939 ft | 355 kts | 83° |
| 2026-05-08 09:41 | 36.88684 | 33.78728 | 16567 ft | 352 kts | 83° |
| 2026-05-08 09:41 | 36.88827 | 33.81789 | 16203 ft | 350 kts | 83° |
| 2026-05-08 09:42 | 36.88964 | 33.84778 | 15830 ft | 348 kts | 83° |
| 2026-05-08 09:42 | 36.89104 | 33.87787 | 15460 ft | 345 kts | 83° |
| 2026-05-08 09:42 | 36.89241 | 33.90763 | 15100 ft | 342 kts | 83° |
| 2026-05-08 09:42 | 36.89376 | 33.93715 | 14734 ft | 340 kts | 83° |
| 2026-05-08 09:43 | 36.89512 | 33.96661 | 14389 ft | 337 kts | 83° |
| 2026-05-08 09:43 | 36.89594 | 33.99545 | 14023 ft | 337 kts | 91° |
| 2026-05-08 09:43 | 36.89178 | 34.02409 | 13729 ft | 335 kts | 102° |
| 2026-05-08 09:43 | 36.88540 | 34.05223 | 13453 ft | 339 kts | 104° |
| 2026-05-08 09:44 | 36.87888 | 34.08041 | 13154 ft | 338 kts | 103° |
| 2026-05-08 09:44 | 36.87257 | 34.10880 | 12810 ft | 336 kts | 102° |
| 2026-05-08 09:44 | 36.86663 | 34.13661 | 12449 ft | 334 kts | 102° |
| 2026-05-08 09:44 | 36.86085 | 34.16456 | 12100 ft | 331 kts | 101° |
| 2026-05-08 09:45 | 36.85523 | 34.19227 | 11755 ft | 327 kts | 102° |
| 2026-05-08 09:45 | 36.84976 | 34.21947 | 11408 ft | 325 kts | 102° |
| 2026-05-08 09:45 | 36.84429 | 34.24678 | 11041 ft | 322 kts | 102° |
| 2026-05-08 09:45 | 36.83888 | 34.27371 | 10675 ft | 319 kts | 102° |
| 2026-05-08 09:46 | 36.83353 | 34.30042 | 10339 ft | 317 kts | 102° |
| 2026-05-08 09:46 | 36.82823 | 34.32688 | 10129 ft | 307 kts | 102° |
| 2026-05-08 09:46 | 36.82314 | 34.35232 | 10103 ft | 303 kts | 102° |
| 2026-05-08 09:46 | 36.81807 | 34.37756 | 9855 ft | 300 kts | 102° |
| 2026-05-08 09:47 | 36.81306 | 34.40260 | 9480 ft | 297 kts | 102° |
| 2026-05-08 09:47 | 36.80812 | 34.42721 | 9148 ft | 292 kts | 102° |
| 2026-05-08 09:47 | 36.80317 | 34.45180 | 8852 ft | 288 kts | 102° |
| 2026-05-08 09:47 | 36.79832 | 34.47583 | 8526 ft | 285 kts | 102° |
| 2026-05-08 09:48 | 36.79351 | 34.49976 | 8173 ft | 283 kts | 102° |
| 2026-05-08 09:48 | 36.78877 | 34.52317 | 7870 ft | 279 kts | 102° |
| 2026-05-08 09:48 | 36.78405 | 34.54657 | 7565 ft | 277 kts | 102° |
| 2026-05-08 09:48 | 36.77937 | 34.56978 | 7267 ft | 274 kts | 102° |
| 2026-05-08 09:49 | 36.77473 | 34.59266 | 6962 ft | 272 kts | 102° |
| 2026-05-08 09:49 | 36.77016 | 34.61525 | 6672 ft | 269 kts | 102° |
| 2026-05-08 09:49 | 36.76562 | 34.63774 | 6367 ft | 267 kts | 102° |
| 2026-05-08 09:49 | 36.76108 | 34.66022 | 6066 ft | 264 kts | 103° |
| 2026-05-08 09:50 | 36.75660 | 34.68232 | 5788 ft | 262 kts | 103° |
| 2026-05-08 09:50 | 36.75221 | 34.70399 | 5511 ft | 260 kts | 103° |
| 2026-05-08 09:50 | 36.74776 | 34.72588 | 5213 ft | 258 kts | 103° |
| 2026-05-08 09:50 | 36.74338 | 34.74748 | 4944 ft | 256 kts | 103° |
| 2026-05-08 09:51 | 36.73901 | 34.76896 | 4656 ft | 254 kts | 103° |
| 2026-05-08 09:51 | 36.73466 | 34.79027 | 4376 ft | 253 kts | 103° |
| 2026-05-08 09:51 | 36.73035 | 34.81137 | 4102 ft | 252 kts | 103° |
| 2026-05-08 09:51 | 36.72606 | 34.83225 | 3833 ft | 249 kts | 103° |
| 2026-05-08 09:52 | 36.72182 | 34.85296 | 3578 ft | 244 kts | 103° |
| 2026-05-08 09:52 | 36.71765 | 34.87324 | 3346 ft | 239 kts | 103° |
| 2026-05-08 09:52 | 36.71358 | 34.89310 | 3099 ft | 236 kts | 103° |
| 2026-05-08 09:52 | 36.71026 | 34.91271 | 2992 ft | 226 kts | 89° |
| 2026-05-08 09:53 | 36.71380 | 34.93129 | 2989 ft | 224 kts | 58° |
| 2026-05-08 09:53 | 36.72453 | 34.94513 | 2992 ft | 224 kts | 33° |
| 2026-05-08 09:53 | 36.73814 | 34.95522 | 2957 ft | 227 kts | 31° |
| 2026-05-08 09:53 | 36.75177 | 34.96496 | 2770 ft | 227 kts | 31° |
| 2026-05-08 09:54 | 36.76542 | 34.97501 | 2484 ft | 226 kts | 32° |
| 2026-05-08 09:54 | 36.77858 | 34.98499 | 2173 ft | 213 kts | 32° |
| 2026-05-08 09:54 | 36.79059 | 34.99417 | 1959 ft | 194 kts | 32° |
| 2026-05-08 09:54 | 36.80157 | 35.00258 | 1763 ft | 174 kts | 32° |
| 2026-05-08 09:55 | 36.81130 | 35.01002 | 1518 ft | 158 kts | 32° |
| 2026-05-08 09:55 | 36.82031 | 35.01689 | 1284 ft | 143 kts | 33° |
| 2026-05-08 09:55 | 36.82853 | 35.02316 | 1095 ft | 136 kts | 32° |
| 2026-05-08 09:55 | 36.83650 | 35.02926 | 943 ft | 136 kts | 32° |
| 2026-05-08 09:56 | 36.84469 | 35.03548 | 776 ft | 136 kts | 33° |
| 2026-05-08 09:56 | 36.85269 | 35.04158 | 612 ft | 135 kts | 33° |
| 2026-05-08 09:56 | 36.86078 | 35.04774 | 434 ft | 136 kts | 33° |
| 2026-05-08 09:56 | 36.86880 | 35.05381 | 263 ft | 135 kts | 32° |
| 2026-05-08 09:57 | 36.88465 | 35.06596 | 29 ft | 122 kts | 32° |
| 2026-05-08 09:57 | 36.89058 | 35.07057 | 32 ft | 76 kts | 29° |
| 2026-05-08 09:57 | 36.89411 | 35.07316 | 33 ft | 52 kts | 32° |
| 2026-05-08 09:58 | 36.89700 | 35.07531 | 34 ft | 40 kts | 25° |
| 2026-05-08 09:58 | 36.89942 | 35.07572 | 34 ft | 25 kts | 0° |
| 2026-05-08 09:58 | 36.90105 | 35.07573 | 35 ft | 16 kts | 338° |
| 2026-05-08 09:58 | 36.90173 | 35.07464 | 35 ft | 16 kts | 304° |
| 2026-05-08 09:59 | 36.90220 | 35.07364 | 35 ft | 12 kts | 300° |
| 2026-05-08 09:59 | 36.90267 | 35.07265 | 35 ft | 13 kts | 297° |
| 2026-05-08 09:59 | 36.90244 | 35.07172 | 35 ft | 8 kts | 244° |
| 2026-05-08 09:59 | 36.90253 | 35.07120 | 35 ft | 6 kts | 299° |
| 2026-05-08 10:00 | 36.90262 | 35.07101 | 35 ft | 1 kts | 301° |
| 2026-05-08 10:00 | 36.90266 | 35.07093 | 35 ft | 1 kts | 301° |
| 2026-05-08 10:00 | 36.90267 | 35.07092 | 35 ft | 0 kts | 301° |